CST,Max TemperatureF,Mean TemperatureF,Min TemperatureF,Max Dew PointF,MeanDew PointF,Min DewpointF,Max Humidity, Mean Humidity, Min Humidity, Max Sea Level PressureIn, Mean Sea Level PressureIn, Min Sea Level PressureIn, Max VisibilityMiles, Mean VisibilityMiles, Min VisibilityMiles, Max Wind SpeedMPH, Mean Wind SpeedMPH, Max Gust SpeedMPH,PrecipitationIn, CloudCover, Events, WindDirDegrees
2013-1-1,20,12,4,16,9,3,100,92,83,30.39,30.23,30.11,10,6,2,14,7,16,T,4,Rain-Snow,326
2013-1-2,31,15,-1,26,12,-3,92,82,72,30.41,30.32,30.19,10,10,8,16,10,20,0.00,0,,296
2013-1-3,28,17,5,18,10,4,92,78,63,30.56,30.47,30.42,10,10,10,14,8,15,0.00,0,,274
2013-1-4,31,13,-5,27,10,-6,91,75,58,30.42,30.31,30.14,10,10,10,18,8,23,0.00,2,,234
2013-1-5,36,22,7,26,19,6,96,80,63,30.41,30.23,30.05,10,10,6,24,11,28,0.00,2,,290
2013-1-6,39,24,9,28,19,8,92,76,59,30.46,30.34,30.15,10,10,10,20,11,24,0.00,0,,226
2013-1-7,43,34,25,31,26,21,85,74,62,30.14,30.03,29.93,10,10,10,22,10,25,0.00,0,,201
2013-1-8,43,33,23,30,25,21,96,72,48,30.25,30.00,29.85,10,10,10,20,9,23,0.00,0,,275
2013-1-9,51,37,22,34,27,20,88,66,44,30.45,30.35,30.25,10,10,10,13,7,14,0.00,0,,357
2013-1-10,39,36,33,38,35,30,100,91,82,30.20,29.89,29.60,10,5,0,20,9,25,0.11,7,Fog-Rain,116
2013-1-11,60,43,26,37,28,10,100,61,21,29.88,29.57,29.37,10,10,6,47,17,60,0.00,0,,219
2013-1-12,26,20,13,20,9,6,81,64,46,30.21,30.08,29.88,10,10,10,22,14,28,0.00,1,,8
2013-1-13,25,17,9,12,7,4,83,65,46,30.36,30.30,30.19,10,10,10,20,6,23,0.00,1,,345
2013-1-14,28,20,11,17,10,7,84,63,42,30.45,30.35,30.27,10,10,3,14,8,18,T,3,Snow,137
2013-1-15,30,22,13,18,15,10,96,77,58,30.31,30.25,30.12,10,9,2,12,6,15,T,4,Snow,208
2013-1-16,53,36,18,27,22,12,81,55,29,30.33,30.20,30.11,10,10,10,22,12,26,0.00,1,,318
2013-1-17,52,38,23,26,22,19,88,58,28,30.56,30.45,30.35,10,10,10,13,8,16,0.00,0,,264
2013-1-18,57,44,30,26,24,23,78,53,27,30.32,30.16,30.04,10,10,10,17,11,21,0.00,0,,226
2013-1-19,60,44,27,23,19,16,75,46,17,30.28,30.16,30.03,10,10,10,26,12,32,0.00,0,,349
2013-1-20,51,37,23,24,21,17,81,56,30,30.40,30.25,30.16,10,10,10,26,9,31,0.00,1,,52
2013-1-21,45,31,17,24,20,15,92,69,45,30.41,30.30,30.18,10,10,10,22,9,28,0.00,2,,197
2013-1-22,49,33,17,23,19,15,92,63,34,30.26,30.18,30.13,10,10,10,16,6,18,0.00,0,,95
2013-1-23,56,39,22,24,20,17,88,55,22,30.30,30.20,30.12,10,10,10,24,10,30,0.00,0,,287
2013-1-24,29,24,18,22,18,15,92,83,74,30.36,30.22,30.04,10,10,8,20,8,25,0.00,4,,112
2013-1-25,54,39,24,26,23,20,88,60,32,30.31,30.22,30.17,10,10,6,14,7,16,0.00,0,,127
2013-1-26,56,41,26,36,28,23,84,58,32,30.16,30.02,29.83,10,10,9,22,12,28,T,2,Rain,158
2013-1-27,63,50,36,41,37,32,89,64,39,29.78,29.72,29.66,10,10,9,25,10,31,0.00,0,,179
2013-1-28,71,48,25,37,30,25,100,61,22,29.77,29.68,29.54,10,6,0,39,15,48,0.00,1,Fog-Rain,206
2013-1-29,39,33,27,36,29,24,92,78,64,29.82,29.68,29.59,10,6,1,30,18,36,0.02,8,Rain-Snow,359
2013-1-30,37,28,19,23,18,12,88,70,52,30.07,29.98,29.78,10,10,10,22,14,26,0.00,1,,297
2013-1-31,42,31,19,27,20,17,91,71,50,30.39,30.19,29.98,10,10,9,22,11,26,0.00,3,,57